Time;durP1;ratioP1;P1;durP2;ratioP2;P2;SDS_P1;SDS_P2;PMS_P1;PMS_P2;Temp;Humidity;BMP_temperature;BMP_pressure;BME280_temperature;BME280_humidity;BME280_pressure;Samples;Min_cycle;Max_cycle;Signal;HPM_P1;HPM_P2
2022/03/24 00:01:58;;;;;;;11.33;7.60;;;10.90;88.40;;;;;;7386969;19;20142;-76
2022/03/24 00:04:24;;;;;;;11.53;7.90;;;10.90;88.10;;;;;;7385568;19;20524;-75
2022/03/24 00:06:49;;;;;;;13.17;8.13;;;10.80;88.20;;;;;;7383555;19;20123;-75
2022/03/24 00:09:15;;;;;;;12.60;8.10;;;10.60;88.70;;;;;;7384784;19;20509;-74
2022/03/24 00:11:41;;;;;;;13.77;7.67;;;10.40;89.50;;;;;;7383677;19;20613;-76
2022/03/24 00:14:10;;;;;;;14.33;8.73;;;10.50;90.00;;;;;;7385889;19;20143;-74
2022/03/24 00:16:36;;;;;;;15.00;8.83;;;10.60;90.00;;;;;;7384546;19;20961;-75
2022/03/24 00:19:01;;;;;;;15.40;8.40;;;10.70;89.80;;;;;;7383732;19;20126;-75
2022/03/24 00:21:27;;;;;;;13.13;8.60;;;10.70;89.60;;;;;;7384308;19;20143;-74
2022/03/24 00:23:54;;;;;;;14.10;8.63;;;10.70;89.40;;;;;;7384477;19;20692;-74
2022/03/24 00:26:20;;;;;;;11.57;7.90;;;10.60;89.80;;;;;;7387254;19;20146;-75
2022/03/24 00:28:46;;;;;;;15.13;9.03;;;10.40;90.20;;;;;;7386103;19;20175;-75
2022/03/24 00:31:11;;;;;;;15.50;8.37;;;10.40;90.30;;;;;;7384059;19;20131;-75
2022/03/24 00:33:38;;;;;;;13.37;8.97;;;10.20;90.60;;;;;;7382194;19;20157;-76
2022/03/24 00:36:10;;;;;;;15.07;8.93;;;10.20;90.60;;;;;;7382296;19;20143;-75
2022/03/24 00:38:37;;;;;;;12.97;8.50;;;10.20;90.70;;;;;;7383371;19;20494;-76
2022/03/24 00:41:02;;;;;;;14.20;8.87;;;10.50;90.60;;;;;;7385632;19;20146;-75
2022/03/24 00:43:30;;;;;;;15.30;8.63;;;10.40;90.60;;;;;;7383691;19;20631;-76
2022/03/24 00:45:55;;;;;;;13.67;8.60;;;10.30;90.60;;;;;;7383191;19;20643;-75
2022/03/24 00:48:23;;;;;;;13.77;8.50;;;10.40;90.60;;;;;;7383694;19;20131;-74
2022/03/24 00:50:49;;;;;;;18.30;9.43;;;10.20;90.40;;;;;;7383170;19;20165;-76
2022/03/24 00:53:16;;;;;;;12.67;8.73;;;10.30;90.50;;;;;;7385002;19;20134;-77
2022/03/24 00:55:43;;;;;;;14.13;7.47;;;10.30;90.50;;;;;;7382720;19;20165;-75
2022/03/24 00:58:10;;;;;;;13.97;8.73;;;10.40;90.50;;;;;;7384374;19;20131;-76
2022/03/24 01:00:38;;;;;;;14.77;8.87;;;10.50;90.20;;;;;;7383354;19;20693;-75
2022/03/24 01:03:07;;;;;;;12.67;8.03;;;10.30;90.50;;;;;;7383130;19;20485;-75
2022/03/24 01:05:37;;;;;;;16.83;9.50;;;10.30;90.70;;;;;;7383217;19;20513;-76
2022/03/24 01:08:08;;;;;;;12.67;8.27;;;10.40;90.80;;;;;;7382349;19;20503;-75
2022/03/24 01:10:35;;;;;;;15.97;8.93;;;10.40;90.70;;;;;;7388375;19;20134;-74
2022/03/24 01:13:00;;;;;;;12.97;8.50;;;10.40;90.70;;;;;;7392186;19;20513;-74
2022/03/24 01:15:27;;;;;;;18.20;9.07;;;10.50;90.80;;;;;;7389658;19;20138;-74
2022/03/24 01:17:53;;;;;;;15.60;9.00;;;10.40;91.00;;;;;;7390687;19;20142;-74
2022/03/24 01:20:19;;;;;;;13.63;8.60;;;10.50;91.20;;;;;;7394272;19;20134;-74
2022/03/24 01:22:45;;;;;;;15.67;8.30;;;10.50;91.20;;;;;;7391740;19;20123;-75
2022/03/24 01:25:11;;;;;;;15.97;8.27;;;10.50;91.30;;;;;;7391173;19;20592;-76
2022/03/24 01:27:40;;;;;;;16.97;9.13;;;10.20;91.40;;;;;;7393381;19;20244;-75
2022/03/24 01:30:09;;;;;;;15.77;8.87;;;10.30;91.60;;;;;;7395115;19;20516;-74
2022/03/24 01:32:36;;;;;;;16.23;9.17;;;10.30;91.50;;;;;;7391286;19;20155;-75
2022/03/24 01:35:07;;;;;;;12.27;8.27;;;10.30;91.60;;;;;;7390141;19;20134;-74
2022/03/24 01:37:35;;;;;;;16.37;8.43;;;10.20;91.60;;;;;;7388458;19;20131;-75
2022/03/24 01:40:01;;;;;;;12.30;8.13;;;10.10;91.80;;;;;;7389863;19;20145;-74
2022/03/24 01:42:27;;;;;;;16.20;8.73;;;10.00;91.90;;;;;;7392085;19;20487;-75
2022/03/24 01:44:55;;;;;;;13.37;8.30;;;9.90;91.90;;;;;;7389586;19;20130;-75
2022/03/24 01:47:22;;;;;;;13.43;8.17;;;9.90;91.90;;;;;;7389993;19;20534;-75
2022/03/24 01:49:48;;;;;;;16.80;9.93;;;10.10;91.90;;;;;;7390696;19;20486;-75
2022/03/24 01:52:16;;;;;;;15.87;8.73;;;10.00;91.80;;;;;;7389739;19;20595;-74
2022/03/24 01:54:47;;;;;;;15.53;8.80;;;10.20;92.00;;;;;;7389948;19;20135;-75
2022/03/24 01:57:15;;;;;;;14.17;9.10;;;10.10;92.10;;;;;;7388850;19;20142;-75
2022/03/24 01:59:41;;;;;;;16.27;9.43;;;10.10;92.10;;;;;;7391388;19;20159;-75
2022/03/24 02:02:08;;;;;;;17.80;9.23;;;10.00;92.10;;;;;;7388641;19;20487;-75
2022/03/24 02:04:37;;;;;;;13.27;8.27;;;10.00;92.10;;;;;;7391137;19;20133;-74
2022/03/24 02:07:07;;;;;;;16.93;9.10;;;10.00;92.10;;;;;;7388157;19;20135;-75
2022/03/24 02:09:33;;;;;;;16.23;8.47;;;10.00;92.10;;;;;;7388722;19;20127;-75
2022/03/24 02:12:00;;;;;;;14.23;9.03;;;10.00;92.10;;;;;;7390189;19;20222;-76
2022/03/24 02:14:29;;;;;;;14.20;8.50;;;9.60;92.30;;;;;;7388299;19;20139;-75
2022/03/24 02:16:55;;;;;;;14.47;8.67;;;9.30;92.40;;;;;;7388260;19;20232;-75
2022/03/24 02:19:23;;;;;;;14.77;8.93;;;9.20;92.90;;;;;;7391760;19;20134;-74
2022/03/24 02:21:51;;;;;;;14.03;9.07;;;9.50;92.60;;;;;;7391952;19;20155;-75
2022/03/24 02:24:19;;;;;;;16.13;9.17;;;9.60;92.40;;;;;;7389361;19;20126;-74
2022/03/24 02:26:46;;;;;;;16.30;9.60;;;9.70;92.50;;;;;;7390451;19;20171;-74
2022/03/24 02:29:14;;;;;;;16.23;9.33;;;9.80;92.40;;;;;;7393231;19;20153;-74
2022/03/24 02:31:43;;;;;;;11.40;7.70;;;9.80;92.20;;;;;;7391183;19;20195;-75
2022/03/24 02:36:57;;;;;;;15.03;8.93;;;9.60;92.50;;;;;;7392871;19;20528;-76
2022/03/24 02:39:23;;;;;;;13.40;8.30;;;9.30;93.00;;;;;;7390695;19;20780;-75
2022/03/24 02:41:52;;;;;;;15.63;8.97;;;9.10;93.40;;;;;;7390099;19;20150;-74
2022/03/24 02:44:19;;;;;;;16.07;8.90;;;9.20;93.40;;;;;;7395278;19;20135;-74
2022/03/24 02:46:47;;;;;;;15.00;8.93;;;9.00;93.70;;;;;;7392420;19;20131;-74
2022/03/24 02:49:17;;;;;;;14.27;9.40;;;8.90;93.80;;;;;;7390701;19;20134;-74
2022/03/24 02:51:43;;;;;;;13.17;8.57;;;8.70;94.30;;;;;;7393418;19;20135;-74
2022/03/24 02:54:11;;;;;;;14.20;8.67;;;8.80;94.20;;;;;;7388631;19;20135;-75
2022/03/24 02:56:38;;;;;;;13.73;8.63;;;8.90;94.20;;;;;;7386655;19;20598;-75
2022/03/24 02:59:06;;;;;;;16.10;9.37;;;8.80;94.70;;;;;;7391283;19;20721;-75
2022/03/24 03:01:38;;;;;;;15.43;8.67;;;9.00;94.40;;;;;;7389396;19;20155;-75
2022/03/24 03:04:05;;;;;;;19.23;9.27;;;9.30;93.80;;;;;;7390605;19;20151;-74
2022/03/24 03:06:33;;;;;;;12.87;8.40;;;9.40;93.40;;;;;;7387043;19;20134;-73
2022/03/24 03:08:59;;;;;;;17.07;9.50;;;9.50;93.20;;;;;;7389310;19;20138;-74
2022/03/24 03:11:25;;;;;;;17.53;9.27;;;9.50;93.00;;;;;;7388292;19;20138;-75
2022/03/24 03:13:52;;;;;;;15.63;9.60;;;9.40;93.20;;;;;;7387601;19;20232;-75
2022/03/24 03:16:18;;;;;;;14.00;9.10;;;9.00;93.60;;;;;;7390050;19;20126;-74
2022/03/24 03:18:44;;;;;;;14.47;9.10;;;8.80;94.20;;;;;;7389527;19;20155;-75
2022/03/24 03:21:11;;;;;;;15.90;9.67;;;8.60;94.30;;;;;;7390014;19;20159;-74
2022/03/24 03:23:38;;;;;;;15.50;8.93;;;8.40;94.80;;;;;;7391960;19;20150;-74
2022/03/24 03:26:08;;;;;;;14.47;8.97;;;8.30;95.10;;;;;;7387697;19;20134;-74
2022/03/24 03:28:34;;;;;;;15.20;8.90;;;8.70;94.90;;;;;;7389807;19;20150;-75
2022/03/24 03:31:01;;;;;;;14.83;9.83;;;8.90;94.50;;;;;;7393182;19;20141;-75
2022/03/24 03:33:27;;;;;;;12.50;8.20;;;9.10;94.30;;;;;;7385862;19;20273;-74
2022/03/24 03:35:53;;;;;;;12.83;8.30;;;8.90;94.30;;;;;;7390234;19;20138;-74
2022/03/24 03:38:20;;;;;;;16.27;9.30;;;9.10;94.20;;;;;;7387796;19;20144;-76
2022/03/24 03:40:47;;;;;;;12.33;8.47;;;9.00;94.20;;;;;;7389052;19;20131;-74
2022/03/24 03:43:14;;;;;;;15.60;9.57;;;9.20;94.10;;;;;;7388138;19;20142;-75
2022/03/24 03:45:43;;;;;;;12.83;8.93;;;9.30;94.00;;;;;;7392627;19;20141;-74
2022/03/24 03:48:11;;;;;;;14.53;9.00;;;9.00;94.40;;;;;;7389206;19;20154;-75
2022/03/24 03:50:41;;;;;;;11.83;8.33;;;9.00;94.70;;;;;;7388932;19;20146;-75
2022/03/24 03:53:08;;;;;;;17.07;9.43;;;9.00;94.60;;;;;;7386371;19;20162;-74
2022/03/24 03:55:35;;;;;;;13.13;8.10;;;8.70;95.00;;;;;;7388172;19;20131;-75
2022/03/24 03:58:02;;;;;;;13.80;8.53;;;8.60;95.60;;;;;;7384287;19;20131;-74
2022/03/24 04:03:13;;;;;;;14.70;8.97;;;8.50;95.40;;;;;;7390853;19;20137;-74
2022/03/24 04:05:38;;;;;;;14.07;9.53;;;8.50;95.70;;;;;;7387395;19;20610;-75
2022/03/24 04:08:07;;;;;;;14.23;8.90;;;8.50;95.50;;;;;;7387727;19;20130;-74
2022/03/24 04:10:33;;;;;;;16.37;9.13;;;8.50;95.80;;;;;;7386955;19;20194;-74
2022/03/24 04:12:59;;;;;;;14.60;8.50;;;8.40;95.70;;;;;;7387897;19;20131;-73
2022/03/24 04:15:26;;;;;;;16.63;10.10;;;8.40;95.80;;;;;;7386362;19;20131;-74
2022/03/24 04:17:52;;;;;;;15.67;9.90;;;8.20;96.00;;;;;;7383928;19;20142;-74
2022/03/24 04:20:20;;;;;;;20.63;10.57;;;8.50;95.90;;;;;;7386674;19;20202;-76
2022/03/24 04:22:55;;;;;;;13.20;8.50;;;8.70;95.60;;;;;;7385824;19;20149;-75
2022/03/24 04:25:21;;;;;;;16.97;9.07;;;8.50;95.50;;;;;;7385595;19;20126;-76
2022/03/24 04:27:48;;;;;;;15.07;8.87;;;8.60;95.50;;;;;;7384655;19;20217;-77
2022/03/24 04:30:15;;;;;;;13.43;8.60;;;8.80;95.10;;;;;;7385052;19;20138;-75
2022/03/24 04:32:41;;;;;;;13.67;8.67;;;8.90;94.60;;;;;;7387937;19;20173;-74
2022/03/24 04:35:08;;;;;;;17.33;8.50;;;8.90;94.50;;;;;;7385286;19;20134;-75
2022/03/24 04:37:35;;;;;;;13.53;9.07;;;8.80;94.60;;;;;;7383274;19;20126;-74
2022/03/24 04:40:05;;;;;;;14.47;9.43;;;8.90;94.60;;;;;;7383126;19;20162;-74
2022/03/24 04:42:32;;;;;;;13.37;8.67;;;8.90;94.40;;;;;;7386966;19;20605;-74
2022/03/24 04:44:58;;;;;;;14.50;8.50;;;8.90;94.20;;;;;;7387331;19;20150;-74
2022/03/24 04:47:24;;;;;;;16.03;9.27;;;8.70;94.60;;;;;;7399590;19;20135;-75
2022/03/24 04:49:50;;;;;;;16.83;8.43;;;8.70;94.50;;;;;;7398786;19;20131;-75
2022/03/24 04:52:15;;;;;;;14.00;8.63;;;8.60;94.60;;;;;;7400124;19;20137;-74
2022/03/24 04:54:41;;;;;;;14.67;8.33;;;8.30;95.10;;;;;;7401466;19;20474;-76
2022/03/24 04:57:07;;;;;;;13.77;7.70;;;8.40;95.10;;;;;;7396634;19;20629;-74
2022/03/24 04:59:33;;;;;;;11.73;8.13;;;8.50;95.40;;;;;;7400286;19;20160;-74
2022/03/24 05:01:59;;;;;;;13.73;8.57;;;8.60;94.70;;;;;;7400523;19;20186;-76
2022/03/24 05:04:25;;;;;;;14.40;8.37;;;8.70;94.60;;;;;;7398681;19;20590;-76
2022/03/24 05:06:51;;;;;;;13.80;8.70;;;8.70;94.60;;;;;;7397390;19;20199;-75
2022/03/24 05:09:17;;;;;;;14.13;8.20;;;8.60;94.40;;;;;;7400093;19;20309;-74
2022/03/24 05:11:43;;;;;;;16.70;8.97;;;8.70;94.40;;;;;;7400055;19;20649;-74
2022/03/24 05:14:08;;;;;;;15.00;8.67;;;8.70;94.30;;;;;;7402576;19;20602;-75
2022/03/24 05:16:34;;;;;;;15.17;9.03;;;8.60;94.40;;;;;;7396883;19;20134;-74
2022/03/24 05:19:00;;;;;;;14.03;9.00;;;8.50;94.50;;;;;;7399848;19;20142;-75
2022/03/24 05:21:27;;;;;;;12.90;8.70;;;8.40;94.60;;;;;;7398256;19;20134;-75
2022/03/24 05:23:53;;;;;;;14.50;8.77;;;8.20;94.80;;;;;;7398982;19;20131;-74
2022/03/24 05:26:21;;;;;;;12.37;8.53;;;8.30;94.80;;;;;;7397179;19;20138;-76
2022/03/24 05:28:47;;;;;;;12.80;8.57;;;8.20;94.80;;;;;;7396575;19;20143;-74
2022/03/24 05:31:13;;;;;;;15.00;8.67;;;8.20;94.90;;;;;;7400181;19;20142;-76
2022/03/24 05:33:39;;;;;;;14.63;9.13;;;8.10;95.10;;;;;;7395894;19;20219;-75
2022/03/24 05:36:06;;;;;;;13.90;8.80;;;8.20;95.00;;;;;;7401826;19;20138;-75
2022/03/24 05:38:31;;;;;;;14.03;8.43;;;8.20;95.20;;;;;;7399204;19;20130;-75
2022/03/24 05:40:57;;;;;;;13.93;8.63;;;8.30;95.30;;;;;;7399362;19;20144;-74
2022/03/24 05:43:24;;;;;;;17.50;9.43;;;8.10;95.60;;;;;;7397398;19;20150;-76
2022/03/24 05:45:50;;;;;;;13.50;8.30;;;7.90;96.60;;;;;;7397664;19;20139;-74
2022/03/24 05:48:16;;;;;;;15.27;8.97;;;8.10;95.90;;;;;;7397312;19;20142;-74
2022/03/24 05:50:43;;;;;;;16.47;9.80;;;8.20;95.50;;;;;;7401487;19;20127;-76
2022/03/24 05:53:09;;;;;;;13.47;8.23;;;8.30;95.60;;;;;;7396770;19;20233;-75
2022/03/24 05:55:37;;;;;;;16.30;9.57;;;8.40;95.40;;;;;;7397858;19;20162;-74
2022/03/24 05:58:06;;;;;;;13.97;8.57;;;8.30;95.60;;;;;;7391105;19;20131;-73
2022/03/24 06:00:34;;;;;;;17.13;9.63;;;8.40;95.50;;;;;;7393385;19;20135;-75
2022/03/24 06:03:01;;;;;;;13.67;9.03;;;8.40;95.40;;;;;;7389743;19;20139;-73
2022/03/24 06:05:27;;;;;;;14.80;9.17;;;8.30;95.60;;;;;;7392149;19;20131;-74
2022/03/24 06:07:53;;;;;;;17.23;9.67;;;8.40;95.60;;;;;;7390650;19;20139;-74
2022/03/24 06:10:19;;;;;;;14.80;9.07;;;8.30;95.40;;;;;;7391426;19;20872;-74
2022/03/24 06:12:47;;;;;;;19.67;9.03;;;8.30;95.70;;;;;;7389756;19;20145;-75
2022/03/24 06:15:13;;;;;;;16.10;8.83;;;8.50;95.40;;;;;;7389607;19;20134;-75
2022/03/24 06:17:39;;;;;;;18.17;9.13;;;8.60;95.10;;;;;;7389172;19;20138;-76
2022/03/24 06:20:08;;;;;;;14.63;9.20;;;8.50;94.90;;;;;;7391326;19;20143;-75
2022/03/24 06:22:50;;;;;;;17.70;9.40;;;8.40;95.40;;;;;;7389164;19;20137;-73
2022/03/24 06:25:17;;;;;;;15.70;9.57;;;8.40;95.30;;;;;;7389150;19;20138;-75
2022/03/24 06:27:43;;;;;;;16.83;9.37;;;8.50;95.10;;;;;;7389784;19;20134;-75
2022/03/24 06:30:11;;;;;;;16.57;9.77;;;8.70;94.90;;;;;;7389077;19;20134;-76
2022/03/24 06:32:37;;;;;;;17.90;9.50;;;8.50;94.80;;;;;;7388905;19;20162;-75
2022/03/24 06:35:03;;;;;;;16.97;9.33;;;8.50;94.90;;;;;;7389670;19;20142;-75
2022/03/24 06:37:29;;;;;;;16.37;10.30;;;8.50;94.90;;;;;;7387205;19;20158;-75
2022/03/24 06:39:56;;;;;;;16.80;9.83;;;8.60;95.00;;;;;;7391723;19;20463;-75
2022/03/24 06:42:23;;;;;;;15.90;9.27;;;8.60;95.10;;;;;;7389072;19;20819;-75
2022/03/24 06:44:49;;;;;;;18.90;9.90;;;8.80;94.80;;;;;;7389665;19;20127;-75
2022/03/24 06:47:15;;;;;;;13.67;8.83;;;8.70;94.80;;;;;;7387468;19;20137;-75
2022/03/24 06:49:41;;;;;;;18.23;10.60;;;8.70;94.80;;;;;;7389397;19;20519;-74
2022/03/24 06:52:07;;;;;;;18.57;9.63;;;8.70;94.80;;;;;;7395375;19;20142;-76
2022/03/24 06:54:34;;;;;;;21.50;10.43;;;8.70;95.00;;;;;;7390390;19;20502;-75
2022/03/24 06:57:00;;;;;;;16.97;10.53;;;8.70;95.10;;;;;;7387696;19;20488;-76
2022/03/24 06:59:26;;;;;;;18.03;10.37;;;8.90;95.20;;;;;;7390561;19;20130;-73
2022/03/24 07:01:52;;;;;;;16.60;10.23;;;9.00;94.70;;;;;;7391043;19;20134;-75
2022/03/24 07:04:18;;;;;;;16.83;9.63;;;9.00;94.50;;;;;;7391151;19;20144;-75
2022/03/24 07:06:43;;;;;;;19.87;11.10;;;9.00;94.50;;;;;;7386968;19;20127;-75
2022/03/24 07:09:09;;;;;;;16.03;9.87;;;9.00;94.50;;;;;;7388319;19;20196;-76
2022/03/24 07:11:35;;;;;;;14.90;9.70;;;9.00;94.50;;;;;;7387052;19;20135;-74
2022/03/24 07:14:01;;;;;;;15.00;9.10;;;9.00;94.50;;;;;;7387624;19;20624;-74
2022/03/24 07:16:27;;;;;;;20.03;9.87;;;9.10;94.30;;;;;;7385974;19;20122;-76
2022/03/24 07:18:53;;;;;;;17.53;10.53;;;9.10;94.40;;;;;;7387639;19;20224;-76
2022/03/24 07:21:19;;;;;;;18.90;10.90;;;9.10;94.40;;;;;;7387189;19;20662;-77
2022/03/24 07:23:45;;;;;;;21.23;10.50;;;9.10;94.30;;;;;;7388327;19;20243;-74
2022/03/24 07:26:11;;;;;;;19.10;10.90;;;9.10;94.70;;;;;;7387331;19;20131;-76
2022/03/24 07:28:36;;;;;;;17.47;10.23;;;9.10;94.30;;;;;;7386419;19;20174;-75
2022/03/24 07:31:19;;;;;;;15.80;9.97;;;9.00;94.40;;;;;;7388090;19;20123;-74
2022/03/24 07:33:45;;;;;;;19.37;10.57;;;9.10;94.30;;;;;;7385650;19;20171;-75
2022/03/24 07:36:12;;;;;;;18.97;10.00;;;9.10;94.20;;;;;;7388145;19;20135;-74
2022/03/24 07:38:38;;;;;;;19.37;10.90;;;9.10;94.20;;;;;;7387712;19;20137;-75
2022/03/24 07:41:05;;;;;;;20.10;10.30;;;9.10;94.10;;;;;;7387815;19;20126;-75
2022/03/24 07:43:30;;;;;;;15.47;9.57;;;9.20;94.10;;;;;;7386637;19;20201;-75
2022/03/24 07:45:56;;;;;;;18.70;10.17;;;9.20;94.00;;;;;;7385344;19;20556;-75
2022/03/24 07:48:25;;;;;;;20.63;11.07;;;9.30;94.10;;;;;;7387953;19;20849;-74
2022/03/24 07:50:53;;;;;;;19.10;10.60;;;9.30;94.00;;;;;;7389906;19;20123;-75
2022/03/24 07:53:28;;;;;;;17.73;10.43;;;9.40;93.80;;;;;;7387711;19;20151;-74
2022/03/24 07:55:55;;;;;;;16.77;10.17;;;9.40;93.90;;;;;;7387064;19;20134;-74
2022/03/24 07:58:21;;;;;;;16.60;10.00;;;9.40;94.00;;;;;;7387383;19;20141;-76
2022/03/24 08:00:49;;;;;;;17.67;11.27;;;9.50;93.90;;;;;;7385441;19;20574;-75
2022/03/24 08:03:18;;;;;;;18.43;10.43;;;9.60;93.90;;;;;;7387542;19;20177;-74
2022/03/24 08:05:45;;;;;;;16.20;10.20;;;9.60;93.80;;;;;;7385768;19;20145;-74
2022/03/24 08:08:11;;;;;;;19.80;11.43;;;9.70;93.70;;;;;;7385494;19;20648;-76
2022/03/24 08:10:38;;;;;;;16.50;10.90;;;9.80;93.80;;;;;;7386107;19;20482;-75
2022/03/24 08:13:05;;;;;;;20.00;11.30;;;9.90;93.70;;;;;;7386015;19;20173;-74
2022/03/24 08:15:31;;;;;;;18.73;11.37;;;10.10;93.40;;;;;;7386437;19;20138;-74
2022/03/24 08:17:56;;;;;;;15.80;10.67;;;10.10;93.20;;;;;;7383370;19;20202;-74
2022/03/24 08:20:23;;;;;;;15.77;10.27;;;10.10;93.10;;;;;;7384959;19;20206;-75
2022/03/24 08:22:49;;;;;;;18.67;11.13;;;10.20;93.10;;;;;;7386844;19;20130;-75
2022/03/24 08:25:15;;;;;;;16.60;10.57;;;10.20;93.10;;;;;;7385952;19;20137;-73
2022/03/24 08:27:40;;;;;;;19.83;10.63;;;10.30;93.00;;;;;;7386128;19;20516;-75
2022/03/24 08:30:07;;;;;;;16.70;10.87;;;10.50;93.10;;;;;;7384963;19;20198;-75
2022/03/24 08:32:33;;;;;;;15.47;10.20;;;10.70;92.90;;;;;;7384849;19;20150;-76
2022/03/24 08:35:00;;;;;;;16.30;10.40;;;10.80;92.70;;;;;;7384838;19;20127;-74
2022/03/24 08:37:25;;;;;;;18.90;11.53;;;10.90;92.50;;;;;;7383112;19;20194;-75
2022/03/24 08:39:51;;;;;;;15.23;10.57;;;11.10;92.30;;;;;;7385779;19;20134;-75
2022/03/24 08:42:17;;;;;;;16.83;10.57;;;11.20;92.10;;;;;;7383816;19;20168;-77
2022/03/24 08:44:44;;;;;;;19.43;11.07;;;11.40;91.70;;;;;;7385809;19;20434;-76
2022/03/24 08:47:10;;;;;;;17.50;11.33;;;11.60;91.60;;;;;;7385689;19;20134;-75
2022/03/24 08:49:36;;;;;;;18.20;11.03;;;11.60;91.50;;;;;;7384200;19;20137;-76
2022/03/24 08:52:03;;;;;;;19.57;11.07;;;11.80;91.20;;;;;;7390279;19;20126;-74
2022/03/24 08:54:28;;;;;;;19.73;11.43;;;11.90;91.00;;;;;;7385426;19;20135;-75
2022/03/24 08:56:54;;;;;;;19.73;10.70;;;11.90;91.00;;;;;;7383447;19;20137;-75
2022/03/24 08:59:20;;;;;;;18.40;11.27;;;12.00;90.90;;;;;;7386394;19;20163;-76
2022/03/24 09:01:45;;;;;;;16.87;10.37;;;12.10;90.80;;;;;;7383375;19;20158;-75
2022/03/24 09:04:11;;;;;;;19.47;10.97;;;12.20;90.60;;;;;;7383489;19;20127;-74
2022/03/24 09:06:37;;;;;;;20.27;10.97;;;12.20;90.60;;;;;;7383249;19;20134;-76
2022/03/24 09:09:05;;;;;;;20.50;11.03;;;12.30;90.50;;;;;;7383523;19;20551;-75
2022/03/24 09:11:31;;;;;;;18.67;10.80;;;12.40;90.10;;;;;;7382821;19;20134;-75
2022/03/24 09:13:57;;;;;;;19.17;10.97;;;12.60;89.80;;;;;;7383767;19;20168;-75
2022/03/24 09:16:23;;;;;;;15.73;10.90;;;12.60;88.90;;;;;;7384048;19;20127;-76
2022/03/24 09:18:49;;;;;;;19.10;11.80;;;12.70;88.00;;;;;;7383694;19;20144;-75
2022/03/24 09:21:16;;;;;;;19.40;11.33;;;12.80;88.30;;;;;;7384864;19;20123;-75
2022/03/24 09:23:43;;;;;;;19.33;11.60;;;12.80;88.50;;;;;;7383133;19;20141;-74
2022/03/24 09:26:09;;;;;;;20.83;11.80;;;12.90;88.60;;;;;;7384021;19;20135;-76
2022/03/24 09:28:35;;;;;;;17.77;11.30;;;13.10;88.30;;;;;;7382537;19;20670;-76
2022/03/24 09:31:01;;;;;;;19.70;12.63;;;13.20;87.70;;;;;;7383384;19;20123;-77
2022/03/24 09:33:26;;;;;;;18.70;11.87;;;13.40;87.00;;;;;;7387643;19;20157;-76
2022/03/24 09:35:52;;;;;;;18.93;12.00;;;13.40;86.70;;;;;;7392502;19;20541;-74
2022/03/24 09:38:18;;;;;;;20.90;12.37;;;13.40;85.30;;;;;;7386645;19;20135;-75
2022/03/24 09:40:46;;;;;;;18.57;11.57;;;13.50;84.50;;;;;;7391452;19;20135;-75
2022/03/24 09:43:14;;;;;;;17.47;10.80;;;13.50;84.70;;;;;;7391692;19;20188;-75
2022/03/24 09:45:45;;;;;;;19.07;11.77;;;13.60;83.50;;;;;;7392318;19;20131;-74
2022/03/24 09:48:12;;;;;;;20.73;12.93;;;13.70;84.00;;;;;;7389892;19;20130;-77
2022/03/24 09:50:39;;;;;;;19.33;12.20;;;13.70;84.00;;;;;;7392512;19;20142;-76
2022/03/24 09:53:06;;;;;;;20.83;12.63;;;13.80;81.90;;;;;;7391290;19;20208;-76
2022/03/24 09:55:32;;;;;;;17.80;12.03;;;13.90;82.20;;;;;;7390101;19;20138;-76
2022/03/24 09:58:00;;;;;;;19.30;12.33;;;14.00;81.10;;;;;;7386687;19;20139;-75
2022/03/24 10:00:26;;;;;;;27.83;18.03;;;14.00;80.70;;;;;;7391449;19;20137;-76
2022/03/24 10:03:09;;;;;;;21.50;13.23;;;14.00;79.20;;;;;;7390584;19;20138;-75
2022/03/24 10:05:35;;;;;;;18.65;12.48;;;14.20;78.50;;;;;;7391043;19;20231;-75
2022/03/24 10:08:06;;;;;;;19.55;12.48;;;14.40;78.80;;;;;;7390109;19;20207;-75
2022/03/24 10:10:34;;;;;;;18.83;11.23;;;14.50;77.30;;;;;;7391002;19;20479;-76
2022/03/24 10:13:04;;;;;;;17.07;11.50;;;14.60;76.00;;;;;;7390704;19;20133;-74
2022/03/24 10:15:30;;;;;;;15.90;11.17;;;14.70;75.80;;;;;;7390168;19;20134;-75
2022/03/24 10:17:58;;;;;;;17.17;11.70;;;14.80;74.70;;;;;;7389062;19;20131;-75
2022/03/24 10:20:28;;;;;;;19.83;11.63;;;14.90;73.90;;;;;;7389763;19;20131;-75
2022/03/24 10:22:58;;;;;;;17.13;11.80;;;15.00;73.80;;;;;;7389173;19;20134;-75
2022/03/24 10:25:33;;;;;;;15.60;10.93;;;15.00;71.40;;;;;;7389714;19;20130;-76
2022/03/24 10:28:09;;;;;;;17.65;11.10;;;15.10;70.50;;;;;;7389446;19;20211;-76
2022/03/24 10:30:49;;;;;;;15.43;10.98;;;15.20;69.80;;;;;;7390811;19;20529;-76
2022/03/24 10:33:33;;;;;;;16.73;10.20;;;15.20;68.50;;;;;;7387032;19;20185;-77
2022/03/24 10:36:15;;;;;;;15.63;9.73;;;15.30;67.70;;;;;;7390728;19;20135;-76
2022/03/24 10:38:46;;;;;;;15.80;10.93;;;15.40;67.10;;;;;;7388197;19;20123;-76
2022/03/24 10:41:16;;;;;;;17.00;11.25;;;15.50;68.30;;;;;;7388719;19;20670;-75
2022/03/24 10:43:43;;;;;;;17.83;11.23;;;15.60;69.00;;;;;;7388691;19;20141;-76
2022/03/24 10:46:17;;;;;;;16.85;11.20;;;15.60;69.20;;;;;;7387575;19;20130;-75
2022/03/24 10:48:44;;;;;;;17.52;10.95;;;15.80;69.80;;;;;;7392114;19;20147;-76
2022/03/24 10:51:10;;;;;;;16.20;10.95;;;15.90;70.40;;;;;;7391458;19;20228;-76
2022/03/24 10:53:42;;;;;;;18.75;12.10;;;16.00;68.70;;;;;;7388999;19;20131;-77
2022/03/24 10:56:14;;;;;;;18.23;10.85;;;16.10;68.40;;;;;;7388689;19;20138;-76
2022/03/24 10:58:43;;;;;;;16.55;11.50;;;16.20;69.10;;;;;;7387768;19;20135;-76
2022/03/24 11:01:11;;;;;;;16.17;11.10;;;16.40;68.30;;;;;;7388154;19;20137;-74
2022/03/24 11:03:38;;;;;;;23.63;16.35;;;16.40;68.60;;;;;;7388978;19;20160;-75
2022/03/24 11:06:17;;;;;;;28.05;17.63;;;16.60;68.30;;;;;;7387110;19;20134;-74
2022/03/24 11:08:44;;;;;;;18.98;12.18;;;16.70;68.20;;;;;;7389626;19;20479;-74
2022/03/24 11:11:15;;;;;;;13.95;10.52;;;16.80;67.60;;;;;;7387678;19;20134;-76
2022/03/24 11:13:58;;;;;;;18.48;11.75;;;16.80;67.90;;;;;;7388910;19;20198;-75
2022/03/24 11:16:33;;;;;;;26.05;14.93;;;16.90;66.50;;;;;;7387886;19;20613;-75
2022/03/24 11:19:11;;;;;;;15.95;10.65;;;17.00;66.30;;;;;;7386460;19;20142;-75
2022/03/24 11:21:39;;;;;;;21.30;11.70;;;16.90;66.50;;;;;;7388002;19;20130;-75
2022/03/24 11:24:06;;;;;;;18.48;11.77;;;17.00;67.50;;;;;;7386764;19;20165;-74
2022/03/24 11:26:34;;;;;;;20.15;11.77;;;17.10;67.10;;;;;;7386648;19;20189;-75
2022/03/24 11:29:00;;;;;;;18.48;11.65;;;17.20;67.70;;;;;;7385245;19;20142;-76
2022/03/24 11:31:31;;;;;;;18.92;11.38;;;17.20;67.30;;;;;;7388531;19;20160;-76
2022/03/24 11:34:00;;;;;;;15.13;10.25;;;17.50;66.90;;;;;;7386853;19;20271;-74
2022/03/24 11:36:28;;;;;;;16.25;10.77;;;17.70;65.20;;;;;;7391343;19;20203;-75
2022/03/24 11:38:56;;;;;;;15.20;10.93;;;17.60;64.50;;;;;;7388344;19;20221;-75
2022/03/24 11:41:30;;;;;;;13.80;10.32;;;17.70;64.70;;;;;;7387603;19;20550;-74
2022/03/24 11:44:03;;;;;;;15.02;9.23;;;17.70;63.50;;;;;;7387836;19;20164;-75
2022/03/24 11:46:56;;;;;;;12.00;9.10;;;17.80;63.30;;;;;;7385866;19;20131;-75
2022/03/24 11:49:24;;;;;;;11.45;8.68;;;17.90;60.60;;;;;;7388021;19;20167;-77
2022/03/24 11:52:10;;;;;;;11.77;8.43;;;18.00;59.70;;;;;;7391940;19;20538;-75
2022/03/24 11:54:48;;;;;;;13.77;8.95;;;18.00;57.40;;;;;;7386310;19;20571;-75
2022/03/24 11:57:34;;;;;;;11.25;8.45;;;18.10;58.70;;;;;;7385770;19;20126;-76
2022/03/24 12:00:12;;;;;;;10.48;7.65;;;18.30;58.40;;;;;;7386112;19;20123;-75
2022/03/24 12:02:59;;;;;;;9.93;7.05;;;18.30;56.30;;;;;;7386958;19;20127;-73
2022/03/24 12:05:47;;;;;;;13.38;8.40;;;18.30;56.30;;;;;;7386251;19;20147;-76
2022/03/24 12:08:12;;;;;;;12.60;8.55;;;18.30;56.90;;;;;;7386931;19;20129;-75
2022/03/24 12:10:38;;;;;;;10.43;8.25;;;18.20;57.30;;;;;;7385692;19;20127;-75
2022/03/24 12:13:13;;;;;;;12.18;8.68;;;18.30;56.60;;;;;;7385380;19;20131;-76
2022/03/24 12:15:39;;;;;;;11.80;8.38;;;18.40;55.90;;;;;;7387462;19;20586;-76
2022/03/24 12:18:06;;;;;;;10.48;7.88;;;18.40;56.50;;;;;;7383460;19;20130;-74
2022/03/24 12:21:02;;;;;;;13.38;9.13;;;18.40;57.10;;;;;;7388143;19;20135;-77
2022/03/24 12:24:01;;;;;;;11.23;8.15;;;18.40;58.30;;;;;;7387710;19;20214;-75
2022/03/24 12:26:29;;;;;;;14.27;8.85;;;18.50;58.80;;;;;;7386075;19;20129;-74
2022/03/24 12:29:17;;;;;;;12.70;9.35;;;18.60;58.00;;;;;;7384622;19;20143;-76
2022/03/24 12:32:05;;;;;;;12.75;8.85;;;18.60;57.80;;;;;;7385760;19;20206;-77
2022/03/24 12:34:45;;;;;;;12.43;8.70;;;18.60;58.20;;;;;;7382937;19;20231;-76
2022/03/24 12:37:22;;;;;;;12.00;8.60;;;18.90;57.40;;;;;;7387651;19;20621;-75
2022/03/24 12:40:11;;;;;;;11.82;9.07;;;18.90;56.60;;;;;;7384481;19;20145;-75
2022/03/24 12:42:49;;;;;;;12.05;8.20;;;18.80;56.40;;;;;;7386793;19;20140;-77
2022/03/24 12:45:36;;;;;;;10.23;7.40;;;18.90;56.70;;;;;;7385872;19;20180;-76
2022/03/24 12:48:11;;;;;;;11.35;7.93;;;19.00;56.90;;;;;;7383768;19;20162;-76
2022/03/24 12:50:43;;;;;;;9.30;7.65;;;19.10;55.90;;;;;;7388064;19;20134;-75